Time;durP1;ratioP1;P1;durP2;ratioP2;P2;SDS_P1;SDS_P2;PMS_P1;PMS_P2;Temp;Humidity;BMP_temperature;BMP_pressure;BME280_temperature;BME280_humidity;BME280_pressure;Samples;Min_cycle;Max_cycle;Signal;HPM_P1;HPM_P2
2023/12/17 00:00:20;;;;;;;22.30;11.20;;;;;;;5.11;93.38;101902.08;133884;1308;22421;-77
2023/12/17 00:03:21;;;;;;;25.30;11.10;;;;;;;5.10;93.30;101901.77;133876;1301;22458;-77
2023/12/17 00:06:27;;;;;;;20.50;10.00;;;;;;;5.11;93.42;101911.41;133785;1301;22350;-77
2023/12/17 00:09:51;;;;;;;16.30;9.90;;;;;;;5.12;93.61;101917.65;133669;1302;23338;-77
2023/12/17 00:12:55;;;;;;;22.70;9.90;;;;;;;5.12;93.66;101914.67;133694;1309;23177;-77
2023/12/17 00:16:19;;;;;;;23.10;10.60;;;;;;;5.12;93.69;101912.56;133728;1309;22471;-77
2023/12/17 00:19:20;;;;;;;16.20;9.20;;;;;;;5.14;93.74;101904.23;133717;1294;22402;-77
2023/12/17 00:22:23;;;;;;;;;;;;;;;5.15;93.60;101891.54;133763;1308;22462;-77
2023/12/17 00:26:15;;;;;;;;;;;;;;;;;;;;;
2023/12/17 00:29:46;;;;;;;19.80;10.10;;;;;;;5.14;94.02;101878.96;133569;1309;22906;-77
2023/12/17 00:32:59;;;;;;;16.80;9.50;;;;;;;5.16;94.00;101886.20;133721;1304;22403;-77
2023/12/17 00:36:00;;;;;;;20.50;8.60;;;;;;;5.18;94.22;101891.00;133687;1308;22380;-76
2023/12/17 00:39:01;;;;;;;;;;;;;;;5.23;94.60;101894.20;133764;1304;22662;-77
2023/12/17 00:42:02;;;;;;;13.60;6.90;;;;;;;5.31;94.99;101896.72;133734;1302;23108;-77
2023/12/17 00:45:28;;;;;;;14.80;7.10;;;;;;;5.38;95.33;101901.39;133704;1301;22445;-77
2023/12/17 00:48:31;;;;;;;12.30;6.40;;;;;;;5.47;96.01;101891.41;133710;1301;22203;-77
2023/12/17 00:52:25;;;;;;;12.40;6.20;;;;;;;5.59;96.00;101895.79;133749;1309;22532;-77
2023/12/17 00:55:32;;;;;;;12.80;5.90;;;;;;;5.67;96.16;101884.82;133733;1301;22327;-77
2023/12/17 00:58:53;;;;;;;12.50;5.60;;;;;;;5.73;96.16;101882.14;133725;1301;23042;-77
2023/12/17 01:01:58;;;;;;;12.60;5.40;;;;;;;5.80;95.91;101876.11;133699;1301;23157;-77
2023/12/17 01:05:08;;;;;;;12.30;6.00;;;;;;;5.86;95.98;101870.32;133779;1307;22291;-76
2023/12/17 01:08:18;;;;;;;11.50;5.40;;;;;;;5.91;95.89;101868.06;133856;1304;22388;-77
2023/12/17 01:11:32;;;;;;;;;;;;;;;;;;;;;
2023/12/17 01:14:45;;;;;;;10.30;5.70;;;;;;;5.97;95.93;101874.96;133811;1292;22376;-77
2023/12/17 01:18:28;;;;;;;;;;;;;;;;;;;;;
2023/12/17 01:22:33;;;;;;;12.90;6.10;;;;;;;6.00;95.82;101859.63;133687;1307;22242;-76
2023/12/17 01:26:05;;;;;;;10.60;5.70;;;;;;;6.02;95.90;101860.75;133853;1308;22385;-77
2023/12/17 01:29:06;;;;;;;13.40;5.80;;;;;;;6.04;95.83;101863.42;133846;1307;22257;-77
2023/12/17 01:32:07;;;;;;;11.70;5.30;;;;;;;6.06;95.81;101856.29;133868;1301;22141;-77
2023/12/17 01:35:08;;;;;;;;;;;;;;;6.07;95.78;101863.23;133839;1308;22513;-77
2023/12/17 01:42:23;;;;;;;12.60;5.00;;;;;;;6.06;95.78;101858.91;133692;1308;22575;-77
2023/12/17 01:45:27;;;;;;;8.80;5.10;;;;;;;6.06;95.58;101858.05;133859;1301;22410;-77
2023/12/17 01:48:51;;;;;;;16.50;5.90;;;;;;;6.05;95.73;101868.30;133835;1301;22437;-77
2023/12/17 01:52:04;;;;;;;;;;;;;;;;;;;;;
2023/12/17 01:55:53;;;;;;;;;;;;;;;;;;;;;
2023/12/17 01:59:40;;;;;;;10.70;5.80;;;;;;;6.05;95.92;101870.55;133837;1302;22969;-77
2023/12/17 02:03:28;;;;;;;10.40;5.40;;;;;;;6.04;95.89;101879.95;133665;1308;22186;-76
2023/12/17 02:06:56;;;;;;;10.20;5.60;;;;;;;6.04;95.82;101880.97;133600;1302;22324;-77
2023/12/17 02:10:07;;;;;;;11.10;5.70;;;;;;;6.03;95.70;101876.83;133812;1308;22254;-77
2023/12/17 02:13:11;;;;;;;11.70;5.90;;;;;;;6.03;95.76;101871.94;133839;1307;22825;-77
2023/12/17 02:16:13;;;;;;;;;;;;;;;6.01;95.76;101865.72;133892;1307;22450;-76
2023/12/17 02:19:31;;;;;;;13.20;5.90;;;;;;;6.00;95.95;101867.20;133827;1301;22426;-77
2023/12/17 02:22:33;;;;;;;10.50;5.60;;;;;;;6.00;95.73;101863.98;133872;1301;23153;-76
2023/12/17 02:25:34;;;;;;;12.80;5.70;;;;;;;6.00;96.02;101861.55;133817;1307;22380;-77
2023/12/17 02:28:35;;;;;;;11.90;5.70;;;;;;;6.00;95.82;101859.27;133886;1307;22219;-77
2023/12/17 02:31:35;;;;;;;;;;;;;;;5.99;95.87;101862.14;133816;1307;22530;-77
2023/12/17 02:35:10;;;;;;;;;;;;;;;;;;;;;
2023/12/17 02:38:17;;;;;;;16.60;5.60;;;;;;;5.96;96.06;101866.02;133854;1307;22302;-76
2023/12/17 02:41:26;;;;;;;12.60;5.90;;;;;;;5.94;96.21;101862.45;133771;1307;23124;-76
2023/12/17 02:44:27;;;;;;;13.10;5.30;;;;;;;5.94;96.16;101869.33;133877;1301;22334;-76
2023/12/17 02:47:28;;;;;;;11.90;6.30;;;;;;;5.94;96.25;101864.58;133839;1301;22433;-77
2023/12/17 02:50:49;;;;;;;16.40;6.10;;;;;;;5.93;96.32;101851.63;133866;1307;22296;-76
2023/12/17 02:53:55;;;;;;;14.40;6.10;;;;;;;5.92;96.30;101852.20;133689;1307;22444;-76
2023/12/17 02:56:56;;;;;;;10.00;5.90;;;;;;;5.92;96.31;101861.52;133867;1307;22375;-76
2023/12/17 03:00:20;;;;;;;12.50;5.40;;;;;;;5.90;96.28;101863.88;133837;1307;22932;-76
2023/12/17 03:03:21;;;;;;;15.10;6.00;;;;;;;5.91;96.39;101859.13;133842;1307;22211;-77
2023/12/17 03:06:25;;;;;;;;;;;;;;;5.90;96.55;101851.97;133838;1308;22507;-77
2023/12/17 03:09:59;;;;;;;12.10;5.70;;;;;;;5.88;96.40;101846.80;133719;1309;22356;-77
2023/12/17 03:13:00;;;;;;;13.80;6.10;;;;;;;5.87;96.39;101843.19;133522;1304;22544;-77
2023/12/17 03:16:09;;;;;;;14.90;6.00;;;;;;;5.85;96.60;101838.02;133836;1301;22469;-77
2023/12/17 03:19:13;;;;;;;12.70;6.10;;;;;;;5.84;96.43;101839.13;133798;1308;22552;-77
2023/12/17 03:22:19;;;;;;;10.90;6.00;;;;;;;5.82;96.46;101843.11;133723;1307;22429;-77
2023/12/17 03:25:21;;;;;;;10.10;6.40;;;;;;;5.81;96.56;101839.86;133715;1302;22427;-78
2023/12/17 03:28:21;;;;;;;9.40;6.00;;;;;;;5.81;96.53;101845.13;133757;1308;23106;-77
2023/12/17 03:31:22;;;;;;;13.10;6.10;;;;;;;5.80;96.39;101850.97;133749;1301;22417;-77
2023/12/17 03:34:34;;;;;;;11.90;5.90;;;;;;;5.79;96.25;101851.59;133730;1308;23466;-77
2023/12/17 03:37:35;;;;;;;13.80;6.50;;;;;;;5.78;96.21;101850.91;133790;1308;22393;-77
2023/12/17 03:41:08;;;;;;;;;;;;;;;;;;;;;
2023/12/17 03:44:11;;;;;;;11.60;6.20;;;;;;;5.78;96.17;101843.02;133709;1301;23236;-77
2023/12/17 03:47:15;;;;;;;16.30;6.90;;;;;;;5.77;96.22;101839.91;133849;1301;23215;-77
2023/12/17 03:50:39;;;;;;;11.20;6.80;;;;;;;5.75;96.47;101842.31;133735;1308;22446;-77
2023/12/17 03:53:49;;;;;;;14.90;6.00;;;;;;;5.74;96.22;101852.07;133818;1306;22355;-77
2023/12/17 03:57:02;;;;;;;;;;;;;;;5.73;96.46;101860.20;133749;1308;22647;-77
2023/12/17 04:00:24;;;;;;;10.20;6.00;;;;;;;5.71;96.43;101858.89;133732;1309;22307;-77
2023/12/17 04:03:47;;;;;;;11.90;6.30;;;;;;;5.71;96.49;101862.05;133814;1301;22899;-77
2023/12/17 04:06:48;;;;;;;16.90;6.40;;;;;;;5.70;96.53;101855.45;133828;1308;22425;-77
2023/12/17 04:09:49;;;;;;;;;;;;;;;5.70;96.49;101861.29;133801;1301;22473;-77
2023/12/17 04:12:53;;;;;;;12.90;6.70;;;;;;;5.69;96.57;101859.90;133759;1308;22469;-77
2023/12/17 04:16:29;;;;;;;12.60;6.70;;;;;;;5.69;96.45;101858.67;133796;1301;22509;-77
2023/12/17 04:19:31;;;;;;;14.00;6.50;;;;;;;5.67;96.37;101854.41;133674;1308;23513;-77
2023/12/17 04:22:34;;;;;;;14.90;6.60;;;;;;;5.66;96.51;101854.14;133774;1301;22457;-77
2023/12/17 04:25:37;;;;;;;12.30;6.30;;;;;;;5.65;96.50;101849.64;133716;1309;23148;-77
2023/12/17 04:28:44;;;;;;;19.10;7.80;;;;;;;5.65;96.74;101856.98;133785;1301;22429;-77
2023/12/17 04:32:05;;;;;;;13.50;6.70;;;;;;;5.64;96.64;101851.08;133562;1304;23044;-77
2023/12/17 04:36:12;;;;;;;17.00;7.80;;;;;;;5.64;96.55;101853.92;133753;1308;23140;-76
2023/12/17 04:39:09;;;;;;;8.30;5.90;;;;;;;5.63;96.60;101856.56;133606;1305;22351;-77
2023/12/17 04:42:25;;;;;;;12.80;6.50;;;;;;;5.62;96.59;101856.44;133541;1306;23294;-77
2023/12/17 04:46:10;;;;;;;13.70;6.10;;;;;;;5.61;96.64;101854.92;133769;1308;22431;-77
2023/12/17 04:49:38;;;;;;;;;;;;;;;;;;;;;
2023/12/17 04:52:41;;;;;;;12.30;6.80;;;;;;;5.61;96.74;101858.82;133777;1308;22424;-77
2023/12/17 04:55:47;;;;;;;11.30;7.00;;;;;;;5.60;96.73;101865.36;133741;1308;22242;-77
2023/12/17 04:58:48;;;;;;;15.00;7.10;;;;;;;5.59;96.82;101871.55;133740;1308;23110;-77
2023/12/17 05:02:12;;;;;;;13.00;7.20;;;;;;;5.59;96.86;101875.42;133807;1302;22361;-77
2023/12/17 05:05:13;;;;;;;11.20;7.10;;;;;;;5.58;96.90;101884.96;133790;1302;22397;-77
2023/12/17 05:08:17;;;;;;;;;;;;;;;5.58;96.77;101881.66;133843;1301;22474;-78
2023/12/17 05:11:50;;;;;;;12.30;7.30;;;;;;;5.57;96.94;101878.90;133767;1308;22481;-77
2023/12/17 05:14:51;;;;;;;12.00;7.50;;;;;;;5.57;96.93;101879.96;133704;1308;22448;-77
2023/12/17 05:17:54;;;;;;;15.40;7.60;;;;;;;5.56;96.86;101884.75;133663;1304;337665;-78
2023/12/17 05:20:55;;;;;;;13.00;6.80;;;;;;;5.55;97.01;101885.52;133681;1306;22900;-77
2023/12/17 05:24:07;;;;;;;12.80;7.50;;;;;;;5.55;96.99;101886.05;133703;1309;22471;-77
2023/12/17 05:27:08;;;;;;;12.30;6.90;;;;;;;5.55;96.88;101880.42;133717;1298;22289;-77
2023/12/17 05:30:14;;;;;;;14.80;7.30;;;;;;;5.55;97.09;101881.09;133749;1307;22464;-77
2023/12/17 05:33:19;;;;;;;14.90;7.40;;;;;;;5.55;96.94;101877.23;133728;1308;22275;-77
2023/12/17 05:36:56;;;;;;;;;;;;;;;;;;;;;
2023/12/17 05:40:00;;;;;;;12.20;6.80;;;;;;;5.55;97.08;101863.38;133749;1301;22442;-77
2023/12/17 05:43:06;;;;;;;;;;;;;;;5.55;96.88;101864.64;133796;1302;23209;-77
2023/12/17 05:46:09;;;;;;;10.60;6.40;;;;;;;5.54;96.84;101867.46;133731;1301;22384;-77
2023/12/17 05:49:10;;;;;;;15.90;7.90;;;;;;;5.55;97.02;101869.73;133765;1302;22409;-77
2023/12/17 05:52:13;;;;;;;13.30;7.20;;;;;;;5.53;97.09;101869.09;133820;1305;22466;-77
2023/12/17 05:55:20;;;;;;;14.40;7.10;;;;;;;5.53;97.02;101872.26;133466;1309;23247;-78
2023/12/17 05:58:21;;;;;;;11.50;6.70;;;;;;;5.54;97.00;101873.79;133798;1308;22503;-76
2023/12/17 06:01:25;;;;;;;;;;;;;;;5.53;96.93;101868.95;133754;1305;23355;-76
2023/12/17 06:04:47;;;;;;;13.20;6.90;;;;;;;5.53;97.05;101871.91;133739;1308;22419;-76
2023/12/17 06:07:54;;;;;;;9.30;6.80;;;;;;;5.53;97.10;101872.65;133711;1308;23215;-76
2023/12/17 06:10:55;;;;;;;16.50;7.50;;;;;;;5.53;97.24;101878.61;133726;1302;23128;-76
2023/12/17 06:13:55;;;;;;;;;;;;;;;5.52;97.07;101880.92;133633;1305;22443;-76
2023/12/17 06:17:00;;;;;;;11.70;6.80;;;;;;;5.52;97.09;101882.67;133713;1301;22371;-76
2023/12/17 06:20:06;;;;;;;14.50;7.60;;;;;;;5.53;97.15;101882.30;133648;1301;22404;-77
2023/12/17 06:23:39;;;;;;;;;;;;;;;;;;;;;
2023/12/17 06:26:43;;;;;;;12.60;7.10;;;;;;;5.52;97.06;101889.17;133713;1307;22414;-76
2023/12/17 06:29:43;;;;;;;;;;;;;;;5.52;96.98;101899.89;133775;1304;22565;-76
2023/12/17 06:32:45;;;;;;;12.50;7.00;;;;;;;5.52;96.78;101908.35;133700;1307;22451;-77
2023/12/17 06:35:46;;;;;;;18.30;6.90;;;;;;;5.51;96.94;101907.32;133697;1307;22893;-77
2023/12/17 06:38:46;;;;;;;;;;;;;;;5.50;96.76;101907.74;133714;1308;22681;-77
2023/12/17 06:41:50;;;;;;;14.30;6.70;;;;;;;5.50;96.84;101907.95;133747;1308;23078;-78
2023/12/17 06:44:51;;;;;;;12.90;6.80;;;;;;;5.49;96.68;101901.67;133726;1301;22253;-77
2023/12/17 06:48:00;;;;;;;12.90;7.10;;;;;;;5.49;96.65;101896.41;133741;1308;23221;-77
2023/12/17 06:51:07;;;;;;;11.30;6.20;;;;;;;5.48;96.84;101906.47;133693;1302;22205;-77
2023/12/17 06:54:08;;;;;;;10.70;7.10;;;;;;;5.47;96.63;101914.59;133711;1308;23049;-75
2023/12/17 06:57:14;;;;;;;13.10;6.70;;;;;;;5.47;96.63;101920.05;133744;1305;22454;-76
2023/12/17 07:00:18;;;;;;;13.50;6.50;;;;;;;5.46;96.52;101927.81;133739;1308;22351;-76
2023/12/17 07:03:29;;;;;;;15.10;7.20;;;;;;;5.45;96.57;101924.36;133718;1302;23531;-76
2023/12/17 07:06:32;;;;;;;16.00;7.90;;;;;;;5.44;96.55;101918.48;133800;1307;22424;-76
2023/12/17 07:09:33;;;;;;;13.60;6.10;;;;;;;5.43;96.51;101923.77;133843;1308;22450;-76
2023/12/17 07:12:34;;;;;;;12.70;7.20;;;;;;;5.42;96.61;101924.73;133807;1308;22409;-76
2023/12/17 07:15:34;;;;;;;;;;;;;;;5.42;96.45;101925.23;133831;1308;22627;-78
2023/12/17 07:18:35;;;;;;;12.90;6.30;;;;;;;5.41;96.64;101925.61;133843;1308;23188;-76
2023/12/17 07:21:42;;;;;;;12.30;7.10;;;;;;;5.41;96.61;101927.77;133795;1308;22258;-76
2023/12/17 07:24:52;;;;;;;11.80;6.40;;;;;;;5.40;96.66;101925.49;133791;1308;22458;-76
2023/12/17 07:28:10;;;;;;;13.50;6.20;;;;;;;5.39;96.58;101930.27;133814;1302;22448;-77
2023/12/17 07:31:11;;;;;;;15.00;7.40;;;;;;;5.37;96.64;101925.30;133776;1308;22389;-75
2023/12/17 07:34:20;;;;;;;12.60;7.20;;;;;;;5.37;96.57;101930.94;133822;1302;22493;-73
2023/12/17 07:37:28;;;;;;;13.10;6.10;;;;;;;5.37;96.63;101941.98;133829;1308;23161;-75
2023/12/17 07:40:35;;;;;;;15.70;6.60;;;;;;;5.37;96.51;101944.98;133790;1302;23128;-80
2023/12/17 07:43:47;;;;;;;13.70;6.80;;;;;;;5.36;96.41;101952.22;133770;1304;22430;-77
2023/12/17 07:46:55;;;;;;;;;;;;;;;5.36;96.45;101950.34;133821;1301;22532;-80
2023/12/17 07:49:57;;;;;;;15.90;6.80;;;;;;;5.35;96.47;101945.63;133817;1308;23197;-75
2023/12/17 07:52:58;;;;;;;12.00;6.70;;;;;;;5.35;96.47;101944.76;133814;1304;22427;-74
2023/12/17 07:56:02;;;;;;;14.00;6.70;;;;;;;5.35;96.55;101945.81;133813;1301;22378;-76
2023/12/17 07:59:03;;;;;;;15.10;7.00;;;;;;;5.35;96.71;101957.22;133541;1301;22523;-76
2023/12/17 08:02:06;;;;;;;14.40;7.50;;;;;;;5.36;96.58;101966.11;133808;1302;22912;-75
2023/12/17 08:05:14;;;;;;;12.60;7.30;;;;;;;5.38;96.46;101961.80;133783;1301;22530;-77
2023/12/17 08:08:17;;;;;;;;;;;;;;;5.39;96.64;101961.88;133816;1301;22469;-74
2023/12/17 08:11:49;;;;;;;;;;;;;;;;;;;;;
2023/12/17 08:15:02;;;;;;;18.60;7.50;;;;;;;5.40;96.50;101968.33;133677;1304;22526;-74
2023/12/17 08:18:26;;;;;;;14.90;7.60;;;;;;;5.40;96.52;101968.33;133655;1308;22408;-74
2023/12/17 08:25:56;;;;;;;14.70;8.00;;;;;;;5.38;96.53;101961.64;133706;1302;22254;-74
2023/12/17 08:28:57;;;;;;;19.00;8.80;;;;;;;5.36;96.65;101963.66;133755;1301;22282;-75
2023/12/17 08:32:32;;;;;;;15.60;7.90;;;;;;;5.35;96.61;101965.10;133778;1307;23167;-74
2023/12/17 08:35:34;;;;;;;16.20;8.40;;;;;;;5.34;96.69;101962.21;133763;1308;22470;-75
2023/12/17 08:38:45;;;;;;;14.70;8.20;;;;;;;5.33;96.59;101960.85;133804;1302;22473;-75
2023/12/17 08:41:49;;;;;;;;;;;;;;;5.32;96.72;101967.89;133811;1308;22473;-75
2023/12/17 08:44:50;;;;;;;54.50;23.80;;;;;;;5.32;96.93;101974.42;133713;1301;22212;-76
2023/12/17 08:48:31;;;;;;;;;;;;;;;;;;;;;
2023/12/17 08:52:35;;;;;;;;;;;;;;;;;;;;;
2023/12/17 08:56:02;;;;;;;17.70;9.40;;;;;;;5.30;97.14;101981.88;133689;1302;22467;-74
2023/12/17 08:59:02;;;;;;;22.80;10.50;;;;;;;5.30;97.42;101976.46;133750;1302;22414;-75
2023/12/17 09:02:03;;;;;;;;;;;;;;;5.31;97.54;101979.24;133805;1308;23777;-75
2023/12/17 09:05:05;;;;;;;17.40;9.50;;;;;;;5.31;97.78;101980.45;133764;1301;23083;-75
2023/12/17 09:08:06;;;;;;;22.80;12.20;;;;;;;5.31;97.79;101981.84;133773;1301;22462;-74
2023/12/17 09:11:07;;;;;;;23.30;12.60;;;;;;;5.32;98.02;101976.88;133788;1301;22224;-74
2023/12/17 09:14:08;;;;;;;18.50;11.10;;;;;;;5.32;98.09;101979.66;133737;1302;22364;-75
2023/12/17 09:17:33;;;;;;;20.10;12.00;;;;;;;5.33;98.14;101966.81;133796;1301;22297;-76
2023/12/17 09:20:35;;;;;;;21.50;10.00;;;;;;;5.33;98.32;101978.90;133739;1301;22292;-75
2023/12/17 09:23:36;;;;;;;21.40;9.80;;;;;;;5.33;98.27;101961.00;133805;1301;22230;-76
2023/12/17 09:26:43;;;;;;;17.90;10.20;;;;;;;5.33;98.48;101959.77;133785;1308;22692;-75
2023/12/17 09:30:14;;;;;;;;;;;;;;;;;;;;;
2023/12/17 09:33:39;;;;;;;19.90;10.30;;;;;;;5.35;98.65;101951.25;133714;1308;22389;-75
2023/12/17 09:36:56;;;;;;;17.80;10.10;;;;;;;5.36;98.82;101958.73;133828;1308;22215;-76
2023/12/17 09:40:22;;;;;;;17.90;11.40;;;;;;;5.37;98.84;101958.52;133781;1305;22388;-75
2023/12/17 09:43:24;;;;;;;21.70;9.80;;;;;;;5.38;98.75;101957.41;133793;1301;22347;-75
2023/12/17 09:46:30;;;;;;;15.40;10.20;;;;;;;5.38;98.87;101959.86;133802;1295;22183;-76
2023/12/17 09:49:37;;;;;;;16.30;10.10;;;;;;;5.39;98.83;101958.92;133789;1301;22962;-76
2023/12/17 09:52:44;;;;;;;19.70;9.90;;;;;;;5.39;98.92;101958.38;133818;1301;23014;-75
2023/12/17 09:55:48;;;;;;;21.20;11.30;;;;;;;5.41;99.09;101959.48;133696;1307;22466;-75
2023/12/17 09:59:22;;;;;;;17.40;9.30;;;;;;;5.44;99.14;101962.34;133782;1301;22263;-75
2023/12/17 10:02:25;;;;;;;18.00;9.70;;;;;;;5.46;99.09;101959.41;133783;1302;22513;-75
2023/12/17 10:05:30;;;;;;;18.80;9.30;;;;;;;5.47;99.08;101962.52;133613;1305;23160;-77
2023/12/17 10:08:41;;;;;;;20.90;10.40;;;;;;;5.47;99.20;101960.55;133564;1304;22447;-76
2023/12/17 10:12:26;;;;;;;23.50;10.60;;;;;;;5.50;99.14;101957.27;133750;1307;24316;-76
2023/12/17 10:15:37;;;;;;;18.50;10.10;;;;;;;5.49;98.91;101950.96;133798;1308;22521;-77
2023/12/17 10:18:59;;;;;;;19.40;10.20;;;;;;;5.50;99.00;101940.42;133599;1301;22501;-78
2023/12/17 10:22:11;;;;;;;22.30;10.10;;;;;;;5.51;99.00;101940.18;133778;1301;22528;-76
2023/12/17 10:25:25;;;;;;;21.00;10.70;;;;;;;5.52;99.14;101938.85;133667;1305;22385;-76
2023/12/17 10:28:32;;;;;;;16.70;9.20;;;;;;;5.54;99.22;101941.55;133740;1301;23082;-76
2023/12/17 10:31:55;;;;;;;16.70;9.30;;;;;;;5.54;98.88;101936.29;133802;1302;22445;-76
2023/12/17 10:35:06;;;;;;;22.70;10.70;;;;;;;5.56;99.01;101938.65;133747;1301;22356;-76
2023/12/17 10:38:25;;;;;;;14.60;8.90;;;;;;;5.58;99.10;101932.02;133744;1304;22338;-76
2023/12/17 10:42:06;;;;;;;16.30;9.60;;;;;;;5.56;98.87;101924.59;133746;1301;23113;-76
2023/12/17 10:45:15;;;;;;;19.20;10.10;;;;;;;5.56;98.76;101914.25;133757;1301;22372;-75
2023/12/17 10:48:16;;;;;;;16.50;9.40;;;;;;;5.55;98.73;101912.35;133792;1302;22970;-73
2023/12/17 10:51:20;;;;;;;18.40;10.50;;;;;;;5.56;99.03;101908.45;133795;1302;23011;-74
2023/12/17 10:54:21;;;;;;;19.20;11.20;;;;;;;5.57;99.05;101905.72;133763;1302;24381;-74
2023/12/17 10:57:29;;;;;;;20.00;11.30;;;;;;;5.58;98.90;101906.59;133225;1307;22391;-75
2023/12/17 11:00:33;;;;;;;20.50;11.10;;;;;;;5.58;99.00;101903.55;133591;1304;22428;-75
2023/12/17 11:03:35;;;;;;;18.70;10.90;;;;;;;5.59;98.75;101905.42;133584;1304;22350;-76
2023/12/17 11:07:07;;;;;;;16.10;9.40;;;;;;;5.61;99.13;101906.92;133588;1304;22287;-76
2023/12/17 11:10:10;;;;;;;16.30;9.60;;;;;;;5.61;98.96;101912.01;133529;1304;22220;-74
2023/12/17 11:13:13;;;;;;;15.60;9.10;;;;;;;5.61;98.98;101908.52;133642;1302;22270;-75
2023/12/17 11:16:22;;;;;;;21.30;10.80;;;;;;;5.61;99.14;101912.67;133537;1304;22511;-76
2023/12/17 11:19:45;;;;;;;;;;;;;;;;;;;;;
2023/12/17 11:22:55;;;;;;;13.40;8.60;;;;;;;5.62;98.91;101915.45;133638;1304;22362;-76
2023/12/17 11:25:56;;;;;;;15.90;9.00;;;;;;;5.61;98.99;101904.46;133623;1308;23289;-75
2023/12/17 11:29:40;;;;;;;14.80;8.40;;;;;;;5.60;98.92;101901.89;133635;1302;23587;-75
2023/12/17 11:32:44;;;;;;;12.00;8.00;;;;;;;5.57;98.80;101902.73;133645;1302;22481;-75
2023/12/17 11:35:50;;;;;;;10.80;8.10;;;;;;;5.56;98.96;101901.92;133558;1307;22516;-75
2023/12/17 11:39:13;;;;;;;13.30;8.90;;;;;;;5.56;99.00;101901.44;133478;1304;22438;-74
2023/12/17 11:42:25;;;;;;;12.60;7.20;;;;;;;5.55;98.72;101897.61;133453;1304;22403;-73
2023/12/17 11:45:43;;;;;;;13.30;7.90;;;;;;;5.56;99.12;101895.29;133631;1303;23081;-76
2023/12/17 11:48:50;;;;;;;14.60;7.80;;;;;;;5.57;98.91;101884.13;133636;1309;23016;-76
2023/12/17 11:51:52;;;;;;;16.70;9.30;;;;;;;5.59;99.07;101882.09;133709;1309;22369;-77
2023/12/17 11:55:02;;;;;;;16.70;9.30;;;;;;;5.62;99.06;101874.34;133528;1303;22369;-75
2023/12/17 11:58:06;;;;;;;16.20;8.90;;;;;;;5.77;99.43;101876.44;133453;1308;23375;-78
2023/12/17 12:01:11;;;;;;;13.50;8.20;;;;;;;6.02;99.54;101871.80;133638;1308;22649;-80
2023/12/17 12:04:17;;;;;;;9.70;6.70;;;;;;;6.25;98.93;101861.94;133374;1304;22334;-79
2023/12/17 12:07:30;;;;;;;;;;;;;;;;;;;;;
2023/12/17 12:10:33;;;;;;;12.50;6.80;;;;;;;6.53;97.00;101851.21;133407;1301;22480;-78
2023/12/17 12:13:42;;;;;;;11.00;6.70;;;;;;;6.54;96.67;101856.23;133635;1303;22357;-79
2023/12/17 12:16:44;;;;;;;11.80;6.80;;;;;;;6.58;96.67;101858.11;133637;1304;23565;-78
2023/12/17 12:19:48;;;;;;;10.70;6.50;;;;;;;6.62;96.53;101855.57;133469;1304;22220;-77
2023/12/17 12:22:52;;;;;;;13.20;7.10;;;;;;;6.68;96.57;101856.17;133575;1304;22266;-80
2023/12/17 12:26:02;;;;;;;7.80;5.60;;;;;;;6.75;96.49;101848.05;133512;1308;22398;-77
2023/12/17 12:29:06;;;;;;;;;;;;;;;6.74;95.83;101841.23;133629;1304;23663;-77
2023/12/17 12:32:09;;;;;;;9.50;6.70;;;;;;;6.75;95.46;101840.63;133507;1302;22374;-78
2023/12/17 12:35:21;;;;;;;8.60;6.20;;;;;;;6.73;95.35;101833.73;133624;1303;22474;-76
2023/12/17 12:39:06;;;;;;;8.70;5.90;;;;;;;6.73;95.12;101831.42;133643;1303;23276;-79
2023/12/17 12:42:33;;;;;;;8.60;5.70;;;;;;;6.73;94.41;101842.89;133502;1309;23009;-76
2023/12/17 12:45:37;;;;;;;11.50;7.50;;;;;;;6.74;94.67;101854.98;133651;1304;22412;-75
2023/12/17 12:48:39;;;;;;;7.80;5.70;;;;;;;6.78;94.65;101853.11;133650;1309;22377;-76
2023/12/17 12:51:40;;;;;;;8.10;5.30;;;;;;;6.82;94.67;101851.48;133634;1304;22253;-76
2023/12/17 12:54:42;;;;;;;10.10;5.70;;;;;;;6.82;93.67;101840.19;133587;1304;23293;-79
2023/12/17 12:57:45;;;;;;;9.30;6.00;;;;;;;6.80;93.57;101833.14;133611;1297;23170;-79
2023/12/17 13:00:52;;;;;;;8.60;6.10;;;;;;;6.78;93.75;101822.50;133634;1308;22386;-76
2023/12/17 13:04:03;;;;;;;9.40;6.20;;;;;;;6.80;93.97;101824.17;133348;1305;22877;-77
2023/12/17 13:07:46;;;;;;;9.60;5.80;;;;;;;6.78;93.80;101822.67;133502;1309;22426;-76
2023/12/17 13:11:29;;;;;;;11.00;6.60;;;;;;;6.72;93.61;101818.09;133494;1304;22424;-77
2023/12/17 13:15:02;;;;;;;;;;;;;;;;;;;;;
2023/12/17 13:18:03;;;;;;;10.40;5.60;;;;;;;6.54;93.34;101821.98;133456;1304;22459;-75
2023/12/17 13:21:19;;;;;;;;;;;;;;;;;;;;;
2023/12/17 13:25:17;;;;;;;9.30;5.30;;;;;;;6.45;93.53;101815.64;133310;1304;22424;-77
2023/12/17 13:28:41;;;;;;;11.90;6.00;;;;;;;6.43;93.55;101818.44;133490;1305;22955;-77
2023/12/17 13:31:45;;;;;;;9.40;6.30;;;;;;;6.43;93.56;101823.39;133516;1303;23216;-80
2023/12/17 13:34:49;;;;;;;12.20;6.40;;;;;;;6.39;93.53;101820.46;133347;1302;22384;-77
2023/12/17 13:37:50;;;;;;;11.70;6.40;;;;;;;6.35;93.44;101824.91;133502;1304;22446;-77
2023/12/17 13:41:00;;;;;;;11.50;6.50;;;;;;;6.31;93.36;101829.95;133453;1304;23165;-76
2023/12/17 13:44:00;;;;;;;10.00;6.00;;;;;;;6.25;93.41;101826.78;133491;1309;22471;-78
2023/12/17 13:47:01;;;;;;;14.40;7.20;;;;;;;6.22;93.60;101814.33;133507;1304;22278;-76
2023/12/17 13:50:07;;;;;;;14.70;8.30;;;;;;;6.19;93.30;101812.23;133484;1304;22297;-75
2023/12/17 13:54:01;;;;;;;20.70;10.40;;;;;;;6.15;93.39;101810.88;133502;1304;22515;-77
2023/12/17 13:57:24;;;;;;;19.40;10.70;;;;;;;6.08;93.20;101812.44;133515;1303;22380;-76
2023/12/17 14:00:26;;;;;;;21.30;11.70;;;;;;;6.04;93.34;101818.63;133519;1309;22350;-74
2023/12/17 14:03:27;;;;;;;19.70;11.00;;;;;;;6.01;93.54;101814.27;133575;1302;23124;-75
2023/12/17 14:06:28;;;;;;;22.40;12.60;;;;;;;5.99;93.51;101800.83;133542;1309;22251;-75
2023/12/17 14:09:29;;;;;;;;;;;;;;;5.97;93.46;101781.13;133617;1302;22462;-74
2023/12/17 14:12:29;;;;;;;26.80;13.70;;;;;;;5.96;93.62;101775.23;133587;1302;22367;-74
2023/12/17 14:16:19;;;;;;;;;;;;;;;5.95;93.55;101785.11;133595;1304;22465;-74
2023/12/17 14:19:24;;;;;;;26.50;14.50;;;;;;;5.91;93.51;101784.64;133600;1303;23131;-74
2023/12/17 14:22:27;;;;;;;29.10;14.10;;;;;;;5.88;93.37;101780.95;133537;1300;23320;-74
2023/12/17 14:25:27;;;;;;;25.30;14.70;;;;;;;5.85;93.59;101789.40;133406;1309;22378;-74
2023/12/17 14:28:28;;;;;;;;;;;;;;;5.79;93.30;101797.27;133567;1309;23344;-74
2023/12/17 14:31:47;;;;;;;;;;;;;;;;;;;;;
2023/12/17 14:34:48;;;;;;;21.30;12.40;;;;;;;5.65;93.36;101801.51;133570;1309;22414;-74
2023/12/17 14:37:49;;;;;;;24.90;12.50;;;;;;;5.60;93.32;101806.86;133561;1303;22389;-75
2023/12/17 14:41:07;;;;;;;21.80;11.70;;;;;;;5.53;93.02;101811.16;133524;1294;22483;-76
2023/12/17 14:44:11;;;;;;;23.60;12.10;;;;;;;5.46;93.39;101806.58;133490;1304;22222;-75
2023/12/17 14:47:18;;;;;;;27.20;14.00;;;;;;;5.41;93.22;101801.58;133590;1304;23483;-74
2023/12/17 14:50:19;;;;;;;66.20;29.10;;;;;;;5.33;92.90;101811.00;133589;1301;22278;-75
2023/12/17 14:53:23;;;;;;;50.80;25.60;;;;;;;5.19;92.87;101809.21;133604;1301;22387;-75
2023/12/17 14:56:36;;;;;;;32.50;19.00;;;;;;;5.09;93.12;101804.36;133602;1307;22226;-75
2023/12/17 14:59:56;;;;;;;25.20;14.10;;;;;;;5.03;93.21;101798.05;133623;1301;22395;-75
2023/12/17 15:02:59;;;;;;;19.10;9.10;;;;;;;4.94;92.97;101791.55;133641;1304;22450;-76
2023/12/17 15:06:03;;;;;;;115.20;62.60;;;;;;;4.82;93.44;101789.04;133628;1301;22586;-76
2023/12/17 15:09:26;;;;;;;354.60;188.70;;;;;;;4.74;93.28;101780.98;133678;1301;22556;-75
2023/12/17 15:12:28;;;;;;;97.50;43.30;;;;;;;4.66;93.24;101781.59;133619;1304;22441;-76
2023/12/17 15:15:30;;;;;;;48.20;20.10;;;;;;;4.61;93.53;101778.71;133565;1304;23095;-75
2023/12/17 15:18:31;;;;;;;29.50;13.70;;;;;;;4.56;93.70;101777.41;133612;1301;24846;-75
2023/12/17 15:21:34;;;;;;;;;;;;;;;4.51;93.49;101779.48;133610;1301;23363;-75
2023/12/17 15:24:37;;;;;;;38.00;18.50;;;;;;;4.42;93.41;101788.38;133665;1301;22256;-75